PAL126 RPLL-KJFK
Flight info
| Callsign | PAL126 |
|---|---|
| Flight time | N/A |
| Altitude | 33000 |
| Route | CAB2R CAB N884 ALBAX Y533 AZAMA Y57 PUTER/N0496F340 A590 PINSO/N0497F350 A590 HAMND DCT TED Q811 GKN/N0492F370 NCA14 GAHAM DCT 61N130W 60N120W DCT HOGAR DCT 58N110W 55N100W DCT KIROD DCT FERNO/N0495F390 DCT 50N090W DCT MUSIT DCT YVV DCT JHW J70 LVZ DCT PUCKY PUCKY1 |
| Aircraft | A35K/H-SDE2E3GHIJ3J4J5LM1ORWXY/LB1D1 |
Departure
| Time | 2026-05-07 12:07 |
|---|---|
| Airport | Ninoy Aquino International Airport (RPLL) |
Arrival
| Time | N/A |
|---|---|
| Airport | John F. Kennedy International Airport (KJFK) |
| Time | Latitude | Longitude | Altitude | Speed | Heading |
|---|---|---|---|---|---|
| 2026-05-07 11:27 | 14.50572 | 121.00708 | 66 ft | 0 kts | 243° |
| 2026-05-07 11:52 | 14.50577 | 121.00718 | 74 ft | 2 kts | 243° |
| 2026-05-07 11:52 | 14.50587 | 121.00738 | 62 ft | 4 kts | 238° |
| 2026-05-07 11:52 | 14.50603 | 121.00753 | 67 ft | 4 kts | 173° |
| 2026-05-07 11:53 | 14.50625 | 121.00742 | 64 ft | 4 kts | 131° |
| 2026-05-07 11:53 | 14.50638 | 121.00723 | 64 ft | 2 kts | 112° |
| 2026-05-07 11:53 | 14.50631 | 121.00741 | 64 ft | 3 kts | 112° |
| 2026-05-07 11:53 | 14.50616 | 121.00763 | 64 ft | 4 kts | 139° |
| 2026-05-07 11:54 | 14.50597 | 121.00774 | 64 ft | 4 kts | 150° |
| 2026-05-07 11:54 | 14.50573 | 121.00788 | 62 ft | 4 kts | 150° |
| 2026-05-07 11:54 | 14.50567 | 121.00791 | 69 ft | 0 kts | 150° |
| 2026-05-07 11:58 | 14.50565 | 121.00792 | 68 ft | 1 kts | 150° |
| 2026-05-07 11:58 | 14.50545 | 121.00804 | 66 ft | 5 kts | 150° |
| 2026-05-07 11:59 | 14.50511 | 121.00820 | 66 ft | 6 kts | 161° |
| 2026-05-07 11:59 | 14.50461 | 121.00826 | 66 ft | 9 kts | 184° |
| 2026-05-07 11:59 | 14.50392 | 121.00799 | 66 ft | 12 kts | 216° |
| 2026-05-07 11:59 | 14.50336 | 121.00720 | 63 ft | 15 kts | 238° |
| 2026-05-07 12:00 | 14.50284 | 121.00629 | 65 ft | 16 kts | 240° |
| 2026-05-07 12:00 | 14.50221 | 121.00517 | 63 ft | 20 kts | 240° |
| 2026-05-07 12:00 | 14.50148 | 121.00384 | 63 ft | 22 kts | 240° |
| 2026-05-07 12:00 | 14.50074 | 121.00251 | 63 ft | 20 kts | 240° |
| 2026-05-07 12:01 | 14.50005 | 121.00128 | 64 ft | 18 kts | 240° |
| 2026-05-07 12:01 | 14.49960 | 121.00047 | 64 ft | 8 kts | 240° |
| 2026-05-07 12:01 | 14.49948 | 121.00026 | 69 ft | 1 kts | 240° |
| 2026-05-07 12:02 | 14.49942 | 121.00015 | 64 ft | 3 kts | 240° |
| 2026-05-07 12:02 | 14.49932 | 120.99997 | 64 ft | 3 kts | 240° |
| 2026-05-07 12:02 | 14.49919 | 120.99979 | 64 ft | 3 kts | 229° |
| 2026-05-07 12:02 | 14.49902 | 120.99969 | 66 ft | 0 kts | 198° |
| 2026-05-07 12:03 | 14.49899 | 120.99968 | 66 ft | 1 kts | 198° |
| 2026-05-07 12:03 | 14.49893 | 120.99967 | 68 ft | 0 kts | 191° |
| 2026-05-07 12:03 | 14.49885 | 120.99967 | 67 ft | 3 kts | 185° |
| 2026-05-07 12:04 | 14.49853 | 120.99978 | 70 ft | 7 kts | 154° |
| 2026-05-07 12:04 | 14.49809 | 121.00015 | 64 ft | 8 kts | 117° |
| 2026-05-07 12:04 | 14.49819 | 121.00067 | 66 ft | 7 kts | 62° |
| 2026-05-07 12:04 | 14.49823 | 121.00074 | 67 ft | 0 kts | 60° |
| 2026-05-07 12:06 | 14.49829 | 121.00084 | 67 ft | 10 kts | 60° |
| 2026-05-07 12:07 | 14.49988 | 121.00375 | 62 ft | 84 kts | 60° |
| 2026-05-07 12:07 | 14.50389 | 121.01091 | 66 ft | 148 kts | 60° |
| 2026-05-07 12:07 | 14.50993 | 121.02195 | 274 ft | 187 kts | 62° |
| 2026-05-07 12:07 | 14.51630 | 121.03335 | 1177 ft | 182 kts | 61° |
| 2026-05-07 12:08 | 14.52267 | 121.04446 | 1732 ft | 181 kts | 61° |
| 2026-05-07 12:08 | 14.52925 | 121.05604 | 1909 ft | 193 kts | 61° |
| 2026-05-07 12:08 | 14.53603 | 121.06847 | 2073 ft | 206 kts | 62° |
| 2026-05-07 12:08 | 14.54325 | 121.08166 | 2245 ft | 220 kts | 61° |
| 2026-05-07 12:09 | 14.55101 | 121.09575 | 2424 ft | 232 kts | 61° |
| 2026-05-07 12:09 | 14.55937 | 121.11084 | 2601 ft | 247 kts | 60° |
| 2026-05-07 12:09 | 14.57009 | 121.12508 | 2893 ft | 256 kts | 41° |
| 2026-05-07 12:09 | 14.58572 | 121.13346 | 3231 ft | 263 kts | 13° |
| 2026-05-07 12:10 | 14.60378 | 121.13499 | 3654 ft | 266 kts | 2° |
| 2026-05-07 12:10 | 14.62237 | 121.13493 | 4079 ft | 269 kts | 1° |
| 2026-05-07 12:10 | 14.64108 | 121.13486 | 4575 ft | 269 kts | 1° |
| 2026-05-07 12:10 | 14.65980 | 121.13487 | 5071 ft | 269 kts | 2° |
| 2026-05-07 12:11 | 14.67852 | 121.13493 | 5516 ft | 271 kts | 1° |
| 2026-05-07 12:11 | 14.69755 | 121.13452 | 5907 ft | 276 kts | 355° |
| 2026-05-07 12:11 | 14.71620 | 121.12996 | 6400 ft | 276 kts | 343° |
| 2026-05-07 12:11 | 14.73442 | 121.12345 | 6835 ft | 278 kts | 342° |
| 2026-05-07 12:12 | 14.75272 | 121.11674 | 7239 ft | 281 kts | 342° |
| 2026-05-07 12:12 | 14.77126 | 121.10999 | 7635 ft | 284 kts | 342° |
| 2026-05-07 12:12 | 14.79004 | 121.10318 | 8039 ft | 288 kts | 342° |
| 2026-05-07 12:12 | 14.80931 | 121.09623 | 8474 ft | 290 kts | 342° |
| 2026-05-07 12:13 | 14.82818 | 121.08945 | 8884 ft | 293 kts | 342° |
| 2026-05-07 12:13 | 14.84780 | 121.08241 | 9310 ft | 296 kts | 342° |
| 2026-05-07 12:13 | 14.86734 | 121.07539 | 9725 ft | 299 kts | 342° |
| 2026-05-07 12:13 | 14.88681 | 121.06846 | 10113 ft | 301 kts | 343° |
| 2026-05-07 12:14 | 14.90786 | 121.06401 | 10326 ft | 310 kts | 356° |
| 2026-05-07 12:14 | 14.92937 | 121.06233 | 10500 ft | 320 kts | 358° |
| 2026-05-07 12:14 | 14.95192 | 121.06092 | 10694 ft | 330 kts | 358° |
| 2026-05-07 12:14 | 14.97523 | 121.05942 | 10904 ft | 340 kts | 358° |
| 2026-05-07 12:15 | 14.99918 | 121.05782 | 11087 ft | 350 kts | 358° |
| 2026-05-07 12:15 | 15.02392 | 121.05614 | 11278 ft | 360 kts | 358° |
| 2026-05-07 12:15 | 15.04924 | 121.05440 | 11464 ft | 369 kts | 358° |
| 2026-05-07 12:15 | 15.07517 | 121.05261 | 11647 ft | 378 kts | 358° |
| 2026-05-07 12:16 | 15.10173 | 121.05078 | 11817 ft | 387 kts | 358° |
| 2026-05-07 12:16 | 15.12885 | 121.04890 | 11992 ft | 395 kts | 358° |
| 2026-05-07 12:16 | 15.15653 | 121.04698 | 12167 ft | 402 kts | 358° |
| 2026-05-07 12:16 | 15.18456 | 121.04503 | 12442 ft | 406 kts | 358° |
| 2026-05-07 12:17 | 15.19409 | 121.04437 | 12561 ft | 407 kts | 358° |
| 2026-05-07 12:17 | 15.21779 | 121.04271 | 12815 ft | 409 kts | 358° |
| 2026-05-07 12:17 | 15.24630 | 121.04073 | 13123 ft | 412 kts | 358° |
| 2026-05-07 12:17 | 15.27505 | 121.03873 | 13442 ft | 415 kts | 358° |
| 2026-05-07 12:18 | 15.30385 | 121.03673 | 13749 ft | 417 kts | 358° |
| 2026-05-07 12:18 | 15.33287 | 121.03472 | 14050 ft | 419 kts | 357° |
| 2026-05-07 12:18 | 15.36168 | 121.03271 | 14395 ft | 419 kts | 357° |
| 2026-05-07 12:18 | 15.39102 | 121.03067 | 14682 ft | 421 kts | 357° |
| 2026-05-07 12:19 | 15.42034 | 121.02863 | 14975 ft | 423 kts | 357° |
| 2026-05-07 12:19 | 15.44975 | 121.02699 | 15274 ft | 424 kts | 0° |
| 2026-05-07 12:19 | 15.47913 | 121.02921 | 15561 ft | 424 kts | 11° |
| 2026-05-07 12:19 | 15.50753 | 121.03726 | 15854 ft | 424 kts | 21° |
| 2026-05-07 12:20 | 15.53485 | 121.04890 | 16150 ft | 425 kts | 25° |
| 2026-05-07 12:20 | 15.56172 | 121.06187 | 16444 ft | 427 kts | 26° |
| 2026-05-07 12:20 | 15.58849 | 121.07549 | 16731 ft | 429 kts | 27° |
| 2026-05-07 12:20 | 15.61521 | 121.08926 | 17051 ft | 430 kts | 27° |
| 2026-05-07 12:21 | 15.64209 | 121.10305 | 17311 ft | 432 kts | 26° |
| 2026-05-07 12:21 | 15.66921 | 121.11680 | 17533 ft | 435 kts | 26° |
| 2026-05-07 12:21 | 15.69652 | 121.13051 | 17847 ft | 437 kts | 26° |
| 2026-05-07 12:21 | 15.72361 | 121.14402 | 18117 ft | 438 kts | 26° |
| 2026-05-07 12:22 | 15.75149 | 121.15787 | 18360 ft | 440 kts | 26° |
| 2026-05-07 12:22 | 15.77912 | 121.17158 | 18605 ft | 441 kts | 26° |
| 2026-05-07 12:22 | 15.80699 | 121.18541 | 18839 ft | 443 kts | 26° |
| 2026-05-07 12:22 | 15.83484 | 121.19924 | 19066 ft | 445 kts | 26° |
| 2026-05-07 12:23 | 15.86247 | 121.21297 | 19303 ft | 446 kts | 26° |
| 2026-05-07 12:23 | 15.89091 | 121.22711 | 19512 ft | 448 kts | 26° |
| 2026-05-07 12:23 | 15.91911 | 121.24115 | 19745 ft | 450 kts | 25° |
| 2026-05-07 12:23 | 15.94700 | 121.25504 | 19972 ft | 451 kts | 25° |
| 2026-05-07 12:24 | 15.97538 | 121.26917 | 20175 ft | 453 kts | 25° |
| 2026-05-07 12:24 | 16.00384 | 121.28334 | 20403 ft | 455 kts | 25° |
| 2026-05-07 12:24 | 16.03284 | 121.29779 | 20641 ft | 456 kts | 25° |
| 2026-05-07 12:24 | 16.06111 | 121.31188 | 20841 ft | 458 kts | 25° |
| 2026-05-07 12:25 | 16.08988 | 121.32623 | 21068 ft | 460 kts | 25° |
| 2026-05-07 12:25 | 16.11915 | 121.34083 | 21297 ft | 461 kts | 25° |
| 2026-05-07 12:25 | 16.14822 | 121.35533 | 21524 ft | 463 kts | 25° |
| 2026-05-07 12:25 | 16.17686 | 121.36963 | 21744 ft | 465 kts | 25° |
| 2026-05-07 12:26 | 16.20604 | 121.38419 | 21962 ft | 466 kts | 25° |
| 2026-05-07 12:26 | 16.23537 | 121.39884 | 22188 ft | 468 kts | 25° |
| 2026-05-07 12:26 | 16.26480 | 121.41354 | 22416 ft | 470 kts | 25° |
| 2026-05-07 12:26 | 16.29413 | 121.42820 | 22618 ft | 472 kts | 25° |
| 2026-05-07 12:27 | 16.32397 | 121.44312 | 22851 ft | 473 kts | 25° |
| 2026-05-07 12:27 | 16.35369 | 121.45798 | 23067 ft | 475 kts | 25° |
| 2026-05-07 12:27 | 16.38347 | 121.47288 | 23256 ft | 477 kts | 25° |
| 2026-05-07 12:27 | 16.41341 | 121.48787 | 23502 ft | 478 kts | 25° |
| 2026-05-07 12:28 | 16.44350 | 121.50293 | 23671 ft | 480 kts | 25° |
| 2026-05-07 12:28 | 16.47360 | 121.51800 | 23840 ft | 482 kts | 25° |
| 2026-05-07 12:28 | 16.50370 | 121.53308 | 24005 ft | 484 kts | 25° |
| 2026-05-07 12:28 | 16.53429 | 121.54842 | 24168 ft | 485 kts | 25° |
| 2026-05-07 12:29 | 16.56462 | 121.56361 | 24382 ft | 486 kts | 25° |
| 2026-05-07 12:29 | 16.59518 | 121.57894 | 24573 ft | 487 kts | 25° |
| 2026-05-07 12:29 | 16.62582 | 121.59431 | 24747 ft | 489 kts | 25° |
| 2026-05-07 12:29 | 16.65647 | 121.60968 | 24949 ft | 489 kts | 25° |
| 2026-05-07 12:30 | 16.68720 | 121.62511 | 25119 ft | 490 kts | 25° |
| 2026-05-07 12:30 | 16.71795 | 121.64056 | 25310 ft | 492 kts | 25° |
| 2026-05-07 12:30 | 16.74883 | 121.65607 | 25502 ft | 493 kts | 25° |
| 2026-05-07 12:30 | 16.77983 | 121.67166 | 25642 ft | 496 kts | 24° |
| 2026-05-07 12:31 | 16.81093 | 121.68729 | 25807 ft | 497 kts | 24° |
| 2026-05-07 12:31 | 16.84204 | 121.70293 | 26039 ft | 497 kts | 25° |
| 2026-05-07 12:31 | 16.87334 | 121.71868 | 26228 ft | 499 kts | 24° |
| 2026-05-07 12:31 | 16.90467 | 121.73445 | 26409 ft | 500 kts | 24° |
| 2026-05-07 12:32 | 16.93605 | 121.75024 | 26622 ft | 501 kts | 24° |
| 2026-05-07 12:32 | 16.96738 | 121.76628 | 26789 ft | 503 kts | 25° |
| 2026-05-07 12:32 | 16.99865 | 121.78282 | 26971 ft | 504 kts | 26° |
| 2026-05-07 12:32 | 17.02988 | 121.79959 | 27188 ft | 505 kts | 26° |
| 2026-05-07 12:33 | 17.09253 | 121.83330 | 27541 ft | 508 kts | 26° |
| 2026-05-07 12:33 | 17.12409 | 121.85018 | 27715 ft | 509 kts | 26° |
| 2026-05-07 12:33 | 17.15567 | 121.86703 | 27886 ft | 511 kts | 26° |
| 2026-05-07 12:34 | 17.18734 | 121.88389 | 28077 ft | 512 kts | 26° |
| 2026-05-07 12:34 | 17.21909 | 121.90078 | 28248 ft | 513 kts | 26° |
| 2026-05-07 12:34 | 17.25096 | 121.91774 | 28404 ft | 514 kts | 26° |
| 2026-05-07 12:34 | 17.28280 | 121.93469 | 28586 ft | 515 kts | 26° |
| 2026-05-07 12:35 | 17.31481 | 121.95173 | 28774 ft | 516 kts | 25° |
| 2026-05-07 12:35 | 17.34647 | 121.96861 | 29031 ft | 515 kts | 25° |
| 2026-05-07 12:35 | 17.37860 | 121.98574 | 29292 ft | 514 kts | 25° |
| 2026-05-07 12:35 | 17.41047 | 122.00274 | 29517 ft | 513 kts | 25° |
| 2026-05-07 12:36 | 17.44230 | 122.01972 | 29775 ft | 513 kts | 25° |
| 2026-05-07 12:36 | 17.47400 | 122.03665 | 29979 ft | 512 kts | 25° |
| 2026-05-07 12:36 | 17.50580 | 122.05363 | 30172 ft | 512 kts | 25° |
| 2026-05-07 12:36 | 17.53748 | 122.07055 | 30374 ft | 511 kts | 25° |
| 2026-05-07 12:37 | 17.56916 | 122.08746 | 30560 ft | 510 kts | 25° |
| 2026-05-07 12:37 | 17.60072 | 122.10434 | 30752 ft | 509 kts | 25° |
| 2026-05-07 12:37 | 17.63223 | 122.12120 | 30908 ft | 509 kts | 25° |
| 2026-05-07 12:37 | 17.66377 | 122.13809 | 31089 ft | 508 kts | 25° |
| 2026-05-07 12:38 | 17.69525 | 122.15494 | 31264 ft | 508 kts | 25° |
| 2026-05-07 12:38 | 17.72671 | 122.17180 | 31427 ft | 507 kts | 25° |
| 2026-05-07 12:38 | 17.75772 | 122.18841 | 31591 ft | 507 kts | 25° |
| 2026-05-07 12:38 | 17.78910 | 122.20523 | 31763 ft | 506 kts | 25° |
| 2026-05-07 12:39 | 17.84154 | 122.23334 | 32039 ft | 505 kts | 25° |
| 2026-05-07 12:39 | 17.87284 | 122.24993 | 32221 ft | 503 kts | 25° |
| 2026-05-07 12:39 | 17.91440 | 122.27151 | 32396 ft | 503 kts | 24° |
| 2026-05-07 12:40 | 17.94585 | 122.28772 | 32526 ft | 502 kts | 24° |
| 2026-05-07 12:40 | 17.96702 | 122.29864 | 32617 ft | 502 kts | 24° |
| 2026-05-07 12:40 | 17.99828 | 122.31479 | 32751 ft | 502 kts | 24° |
| 2026-05-07 12:40 | 18.02961 | 122.33103 | 32864 ft | 501 kts | 24° |
| 2026-05-07 12:41 | 18.10266 | 122.36900 | 32922 ft | 507 kts | 24° |
| 2026-05-07 12:41 | 18.15573 | 122.39666 | 32916 ft | 508 kts | 24° |
| 2026-05-07 12:42 | 18.21899 | 122.42966 | 32920 ft | 507 kts | 24° |
| 2026-05-07 12:42 | 18.28215 | 122.46263 | 32919 ft | 507 kts | 24° |
| 2026-05-07 12:43 | 18.34536 | 122.49564 | 32919 ft | 507 kts | 24° |
| 2026-05-07 12:43 | 18.40851 | 122.52866 | 32919 ft | 507 kts | 24° |
| 2026-05-07 12:44 | 18.47164 | 122.56168 | 32919 ft | 506 kts | 24° |
| 2026-05-07 12:44 | 18.53478 | 122.59473 | 32919 ft | 506 kts | 24° |
| 2026-05-07 12:45 | 18.59781 | 122.62777 | 32918 ft | 506 kts | 24° |
| 2026-05-07 12:45 | 18.66094 | 122.66088 | 32919 ft | 507 kts | 24° |
| 2026-05-07 12:46 | 18.72366 | 122.69380 | 32922 ft | 507 kts | 24° |
| 2026-05-07 12:46 | 18.78677 | 122.72695 | 32922 ft | 507 kts | 24° |
| 2026-05-07 12:47 | 18.85024 | 122.76032 | 32919 ft | 507 kts | 24° |
| 2026-05-07 12:47 | 18.91297 | 122.79333 | 32919 ft | 507 kts | 24° |
| 2026-05-07 12:48 | 18.97609 | 122.82657 | 32919 ft | 507 kts | 24° |
| 2026-05-07 12:48 | 19.03915 | 122.85981 | 32922 ft | 507 kts | 24° |
| 2026-05-07 12:49 | 19.10222 | 122.89309 | 32924 ft | 507 kts | 24° |
| 2026-05-07 12:49 | 19.16539 | 122.92644 | 32926 ft | 507 kts | 24° |
| 2026-05-07 12:50 | 19.22854 | 122.95981 | 32927 ft | 507 kts | 24° |
| 2026-05-07 12:50 | 19.29168 | 122.99321 | 32930 ft | 507 kts | 24° |
| 2026-05-07 12:51 | 19.35478 | 123.02661 | 32930 ft | 507 kts | 24° |
| 2026-05-07 12:51 | 19.41790 | 123.06006 | 32931 ft | 507 kts | 24° |
| 2026-05-07 12:52 | 19.48085 | 123.09345 | 32930 ft | 506 kts | 24° |
| 2026-05-07 12:52 | 19.54385 | 123.12688 | 32930 ft | 506 kts | 24° |
| 2026-05-07 12:53 | 19.60684 | 123.16034 | 32933 ft | 506 kts | 24° |
| 2026-05-07 12:53 | 19.66994 | 123.19390 | 32934 ft | 507 kts | 24° |
| 2026-05-07 12:54 | 19.73301 | 123.22746 | 32936 ft | 507 kts | 24° |
| 2026-05-07 12:54 | 19.79610 | 123.26107 | 32936 ft | 507 kts | 24° |
| 2026-05-07 12:55 | 19.85890 | 123.29455 | 32939 ft | 507 kts | 24° |
| 2026-05-07 12:55 | 19.92215 | 123.32830 | 32942 ft | 507 kts | 25° |
| 2026-05-07 12:56 | 19.98500 | 123.36187 | 32936 ft | 506 kts | 25° |
| 2026-05-07 12:56 | 20.04789 | 123.39549 | 32936 ft | 505 kts | 25° |
| 2026-05-07 12:57 | 20.11065 | 123.42907 | 32939 ft | 505 kts | 25° |
| 2026-05-07 12:57 | 20.17343 | 123.46268 | 32942 ft | 505 kts | 25° |
| 2026-05-07 12:58 | 20.23620 | 123.49633 | 32939 ft | 504 kts | 25° |
| 2026-05-07 12:58 | 20.29888 | 123.52996 | 32941 ft | 504 kts | 25° |
| 2026-05-07 12:59 | 20.36148 | 123.56358 | 32944 ft | 504 kts | 25° |
| 2026-05-07 12:59 | 20.42418 | 123.59728 | 32948 ft | 504 kts | 25° |
| 2026-05-07 13:00 | 20.48683 | 123.63099 | 32945 ft | 504 kts | 25° |
| 2026-05-07 13:00 | 20.54935 | 123.66465 | 32944 ft | 504 kts | 25° |
| 2026-05-07 13:01 | 20.61196 | 123.69839 | 32948 ft | 504 kts | 25° |
| 2026-05-07 13:01 | 20.67471 | 123.73224 | 32954 ft | 505 kts | 25° |
| 2026-05-07 13:02 | 20.73746 | 123.76613 | 32953 ft | 505 kts | 25° |
| 2026-05-07 13:02 | 20.80008 | 123.79997 | 32956 ft | 505 kts | 25° |
| 2026-05-07 13:03 | 20.86276 | 123.83388 | 32952 ft | 505 kts | 25° |
| 2026-05-07 13:03 | 20.92502 | 123.86760 | 32949 ft | 505 kts | 25° |
| 2026-05-07 13:04 | 20.98811 | 123.90179 | 32952 ft | 505 kts | 25° |
| 2026-05-07 13:04 | 21.05072 | 123.93577 | 32952 ft | 505 kts | 25° |
| 2026-05-07 13:05 | 21.11302 | 123.96943 | 32959 ft | 505 kts | 25° |
| 2026-05-07 13:05 | 21.17577 | 124.00337 | 32964 ft | 506 kts | 25° |
| 2026-05-07 13:06 | 21.23856 | 124.03740 | 32958 ft | 506 kts | 25° |
| 2026-05-07 13:06 | 21.30136 | 124.07148 | 32957 ft | 506 kts | 25° |
| 2026-05-07 13:07 | 21.36412 | 124.10557 | 32960 ft | 506 kts | 25° |
| 2026-05-07 13:07 | 21.42690 | 124.13971 | 32961 ft | 506 kts | 25° |
| 2026-05-07 13:08 | 21.48964 | 124.17386 | 32963 ft | 506 kts | 25° |
| 2026-05-07 13:08 | 21.55236 | 124.20803 | 32966 ft | 506 kts | 25° |
| 2026-05-07 13:09 | 21.61516 | 124.24227 | 32966 ft | 506 kts | 25° |
| 2026-05-07 13:09 | 21.67793 | 124.27653 | 32965 ft | 506 kts | 25° |
| 2026-05-07 13:10 | 21.74076 | 124.31087 | 32968 ft | 507 kts | 25° |
| 2026-05-07 13:10 | 21.80361 | 124.34524 | 32966 ft | 507 kts | 25° |
| 2026-05-07 13:11 | 21.85584 | 124.37383 | 32965 ft | 507 kts | 25° |
| 2026-05-07 13:11 | 21.92928 | 124.41407 | 32968 ft | 507 kts | 25° |
| 2026-05-07 13:12 | 21.99218 | 124.44857 | 32971 ft | 507 kts | 25° |
| 2026-05-07 13:12 | 22.05507 | 124.48311 | 32974 ft | 507 kts | 25° |
| 2026-05-07 13:13 | 22.11779 | 124.51759 | 32973 ft | 506 kts | 25° |
| 2026-05-07 13:13 | 22.18047 | 124.55208 | 32974 ft | 506 kts | 25° |
| 2026-05-07 13:14 | 22.24324 | 124.58664 | 32977 ft | 506 kts | 25° |
| 2026-05-07 13:14 | 22.30602 | 124.62125 | 32977 ft | 507 kts | 25° |
| 2026-05-07 13:15 | 22.36881 | 124.65590 | 32984 ft | 507 kts | 24° |
| 2026-05-07 13:15 | 22.43156 | 124.69057 | 32978 ft | 507 kts | 24° |
| 2026-05-07 13:16 | 22.49435 | 124.72529 | 32980 ft | 507 kts | 25° |
| 2026-05-07 13:16 | 22.55715 | 124.76005 | 32978 ft | 507 kts | 25° |
| 2026-05-07 13:17 | 22.61991 | 124.79484 | 32988 ft | 507 kts | 24° |
| 2026-05-07 13:17 | 22.68268 | 124.82966 | 32985 ft | 508 kts | 25° |
| 2026-05-07 13:18 | 22.74554 | 124.86456 | 32982 ft | 508 kts | 25° |
| 2026-05-07 13:18 | 22.80811 | 124.89934 | 32982 ft | 508 kts | 25° |
| 2026-05-07 13:19 | 22.87122 | 124.93446 | 32977 ft | 508 kts | 24° |
| 2026-05-07 13:19 | 22.93420 | 124.96954 | 32982 ft | 509 kts | 25° |
| 2026-05-07 13:20 | 22.99715 | 125.00464 | 32986 ft | 509 kts | 25° |
| 2026-05-07 13:20 | 23.06009 | 125.03978 | 32983 ft | 508 kts | 25° |
| 2026-05-07 13:21 | 23.12307 | 125.07498 | 32982 ft | 510 kts | 25° |
| 2026-05-07 13:21 | 23.18616 | 125.11027 | 32995 ft | 510 kts | 25° |
| 2026-05-07 13:22 | 23.24932 | 125.14564 | 32979 ft | 510 kts | 25° |
| 2026-05-07 13:22 | 23.31237 | 125.18099 | 32988 ft | 511 kts | 25° |
| 2026-05-07 13:23 | 23.37526 | 125.21628 | 32990 ft | 512 kts | 25° |
| 2026-05-07 13:23 | 23.43837 | 125.25173 | 32988 ft | 512 kts | 25° |
| 2026-05-07 13:24 | 23.49160 | 125.28166 | 32991 ft | 512 kts | 25° |
| 2026-05-07 13:24 | 23.56441 | 125.32452 | 32990 ft | 515 kts | 31° |
| 2026-05-07 13:25 | 23.61196 | 125.36467 | 32991 ft | 517 kts | 37° |
| 2026-05-07 13:25 | 23.66688 | 125.41531 | 32992 ft | 518 kts | 38° |
| 2026-05-07 13:26 | 23.72162 | 125.46670 | 32990 ft | 518 kts | 38° |
| 2026-05-07 13:26 | 23.77635 | 125.51796 | 32993 ft | 518 kts | 38° |
| 2026-05-07 13:27 | 23.83065 | 125.56869 | 32994 ft | 517 kts | 38° |
| 2026-05-07 13:27 | 23.88579 | 125.62018 | 32997 ft | 517 kts | 38° |
| 2026-05-07 13:28 | 23.94042 | 125.67126 | 32995 ft | 517 kts | 38° |
| 2026-05-07 13:28 | 23.99516 | 125.72250 | 32996 ft | 519 kts | 38° |
| 2026-05-07 13:29 | 24.05001 | 125.77391 | 32997 ft | 519 kts | 38° |
| 2026-05-07 13:29 | 24.10469 | 125.82524 | 32998 ft | 517 kts | 38° |
| 2026-05-07 13:30 | 24.15930 | 125.87655 | 33003 ft | 517 kts | 38° |
| 2026-05-07 13:30 | 24.21393 | 125.92793 | 32996 ft | 519 kts | 38° |
| 2026-05-07 13:31 | 24.26834 | 125.97917 | 32998 ft | 519 kts | 38° |
| 2026-05-07 13:31 | 24.32307 | 126.03078 | 32998 ft | 519 kts | 38° |
| 2026-05-07 13:32 | 24.37776 | 126.08240 | 33002 ft | 519 kts | 38° |
| 2026-05-07 13:32 | 24.43255 | 126.13418 | 32997 ft | 520 kts | 38° |
| 2026-05-07 13:33 | 24.48737 | 126.18605 | 32996 ft | 520 kts | 38° |
| 2026-05-07 13:33 | 24.54223 | 126.23803 | 32999 ft | 520 kts | 38° |
| 2026-05-07 13:34 | 24.62434 | 126.31594 | 33003 ft | 520 kts | 38° |
| 2026-05-07 13:35 | 24.67908 | 126.36795 | 33001 ft | 520 kts | 38° |
| 2026-05-07 13:35 | 24.73380 | 126.42000 | 33000 ft | 520 kts | 38° |
| 2026-05-07 13:36 | 24.78856 | 126.47216 | 33004 ft | 520 kts | 38° |
| 2026-05-07 13:36 | 24.84329 | 126.52435 | 33003 ft | 521 kts | 38° |
| 2026-05-07 13:37 | 24.89795 | 126.57654 | 33005 ft | 520 kts | 38° |
| 2026-05-07 13:37 | 24.95258 | 126.62877 | 33004 ft | 520 kts | 38° |
| 2026-05-07 13:38 | 25.00729 | 126.68114 | 33007 ft | 521 kts | 38° |
| 2026-05-07 13:38 | 25.06209 | 126.73365 | 32998 ft | 522 kts | 38° |
| 2026-05-07 13:39 | 25.11684 | 126.78618 | 33010 ft | 522 kts | 38° |
| 2026-05-07 13:39 | 25.17157 | 126.83876 | 33007 ft | 521 kts | 38° |
| 2026-05-07 13:40 | 25.22626 | 126.89137 | 33012 ft | 523 kts | 38° |
| 2026-05-07 13:40 | 25.28112 | 126.94421 | 33009 ft | 523 kts | 38° |
| 2026-05-07 13:41 | 25.33592 | 126.99705 | 33008 ft | 523 kts | 38° |
| 2026-05-07 13:41 | 25.39069 | 127.04993 | 33008 ft | 523 kts | 38° |
| 2026-05-07 13:42 | 25.44553 | 127.10294 | 33006 ft | 524 kts | 38° |
| 2026-05-07 13:42 | 25.50004 | 127.15570 | 33020 ft | 524 kts | 38° |
| 2026-05-07 13:43 | 25.55488 | 127.20885 | 33015 ft | 524 kts | 38° |
| 2026-05-07 13:43 | 25.60982 | 127.26215 | 33012 ft | 525 kts | 38° |
| 2026-05-07 13:44 | 25.66470 | 127.31548 | 33010 ft | 524 kts | 38° |
| 2026-05-07 13:44 | 25.71955 | 127.36885 | 33010 ft | 524 kts | 38° |
| 2026-05-07 13:45 | 25.77436 | 127.42224 | 33010 ft | 525 kts | 38° |
| 2026-05-07 13:45 | 25.82916 | 127.47568 | 33009 ft | 525 kts | 38° |
| 2026-05-07 13:46 | 25.88392 | 127.52917 | 33014 ft | 523 kts | 38° |
| 2026-05-07 13:46 | 25.93849 | 127.58253 | 33018 ft | 523 kts | 38° |
| 2026-05-07 13:47 | 25.98391 | 127.62698 | 33014 ft | 524 kts | 38° |